Кърджали, Bulgaria

21 02, 2017 18:57 EET (GMT +0200)
Haskovo | | Change Station

Elev 646 ft 41.92 °N, 25.56 °E | Updated 3 seconds ago

Ясно
Ясно
46.6 °F
Feels Like 47 °F
N
1.5
Вятър Променлива Вятър from З-ЮЗ
Gusts 1.5 mph

Днес
High -- | Low -- °F
--% Chance of Precip.
Yesterday
High -- | Low -- °F
Precip. -- инчове
Атм. налягане 29.98 инчове
Видимост 6.2 мили
Облаци Few 3000 ft
Температура с отчитане на вятъра 47 °F
Точка на оросяване 35 °F
Влажност 64%
Rainfall 0.00 инчове
Snow Depth Not available.
7:05 AM 5:59 PM
Намаляващ полумесец, 24% visible
METAR LGKV 211650Z 24007KT 9999 FEW030 10/05 Q1015
Атм. налягане 29.98 инчове
Видимост 6.2 мили
Облаци Few 3000 ft
Температура с отчитане на вятъра 47 °F
Точка на оросяване 35 °F
Влажност 64%
Rainfall 0.00 инчове
Snow Depth Not available.
7:05 AM 5:59 PM
Намаляващ полумесец, 24% visible
METAR LGKV 211650Z 24007KT 9999 FEW030 10/05 Q1015

Get Your Daily Forecast Email!

Thanks for signing up!

Be on the lookout for a verification email in your inbox.

You'll start receiving the daily forecast at 8 AM.

×

10-Day Weather Forecast

×

Almanac

Астрономия

Feb. 21, 2017 Rise Set
Actual Time
Civil Twilight
Nautical Twilight
Astronomical Twilight
Moon
Length Of Visible Light
Продължителност на деня
Tomorrow will be .
, % of the Moon is Illuminated

Today's Extremes

Country Highs Country Lows

Community

WunderPhotos

Upload Photos

1,962,540 photos uploaded!

WunderBlog® & News

Nearby

Качество на въздуха

  Качество на въздуха AQ Index Pollutant
Not available.

Snow Depth

Station Depth Elevation

Earthquake Activity

City Distance Mag. Time & Date
Minimum magnitude displayed is 2.5.

Coastal Water Temperatures

Град Температура

Stations

Nearby Weather Stations

Station Location Temp Температура с отчитане на вятъра Точка на оросяване Влажност Вятър Precip. Elev Последна справка Type